sensor_id;sensor_type;location;lat;lon;timestamp;pressure;altitude;pressure_sealevel;temperature;humidity
53874;BME280;62246;50.938;4.058;2022-12-07T00:01:13;102073.16;;;3.12;100.00
53874;BME280;62246;50.938;4.058;2022-12-07T00:03:40;102073.19;;;3.10;100.00
53874;BME280;62246;50.938;4.058;2022-12-07T00:06:07;102073.34;;;3.06;100.00
53874;BME280;62246;50.938;4.058;2022-12-07T00:08:34;102076.78;;;3.06;100.00
53874;BME280;62246;50.938;4.058;2022-12-07T00:11:11;102067.25;;;3.04;100.00
53874;BME280;62246;50.938;4.058;2022-12-07T00:13:37;102069.91;;;3.02;100.00
53874;BME280;62246;50.938;4.058;2022-12-07T00:16:06;102063.63;;;3.09;100.00
53874;BME280;62246;50.938;4.058;2022-12-07T00:18:32;102070.22;;;3.26;100.00
53874;BME280;62246;50.938;4.058;2022-12-07T00:21:03;102055.81;;;3.44;100.00
53874;BME280;62246;50.938;4.058;2022-12-07T00:23:29;102047.78;;;3.50;100.00
53874;BME280;62246;50.938;4.058;2022-12-07T00:25:55;102057.88;;;3.65;100.00
53874;BME280;62246;50.938;4.058;2022-12-07T00:28:20;102053.28;;;3.74;100.00
53874;BME280;62246;50.938;4.058;2022-12-07T00:30:46;102051.41;;;3.79;100.00
53874;BME280;62246;50.938;4.058;2022-12-07T00:33:12;102043.75;;;3.71;100.00
53874;BME280;62246;50.938;4.058;2022-12-07T00:35:37;102041.97;;;3.72;100.00
53874;BME280;62246;50.938;4.058;2022-12-07T00:38:03;102036.78;;;3.70;100.00
53874;BME280;62246;50.938;4.058;2022-12-07T00:40:28;102044.53;;;3.75;100.00
53874;BME280;62246;50.938;4.058;2022-12-07T00:42:53;102042.81;;;3.74;100.00
53874;BME280;62246;50.938;4.058;2022-12-07T00:45:19;102050.56;;;3.78;100.00
53874;BME280;62246;50.938;4.058;2022-12-07T00:47:44;102041.81;;;3.78;100.00
53874;BME280;62246;50.938;4.058;2022-12-07T00:50:10;102040.84;;;3.82;100.00
53874;BME280;62246;50.938;4.058;2022-12-07T00:52:35;102034.72;;;3.83;100.00
53874;BME280;62246;50.938;4.058;2022-12-07T00:55:01;102039.00;;;3.86;100.00
53874;BME280;62246;50.938;4.058;2022-12-07T00:57:27;102039.09;;;3.82;100.00
53874;BME280;62246;50.938;4.058;2022-12-07T00:59:53;102038.38;;;3.77;100.00
53874;BME280;62246;50.938;4.058;2022-12-07T01:02:22;102026.47;;;3.65;100.00
53874;BME280;62246;50.938;4.058;2022-12-07T01:04:48;102029.13;;;3.64;100.00
53874;BME280;62246;50.938;4.058;2022-12-07T01:07:13;102035.16;;;3.66;100.00
53874;BME280;62246;50.938;4.058;2022-12-07T01:09:39;102035.13;;;3.67;100.00
53874;BME280;62246;50.938;4.058;2022-12-07T01:12:04;102033.31;;;3.70;100.00
53874;BME280;62246;50.938;4.058;2022-12-07T01:14:30;102039.38;;;3.72;100.00
53874;BME280;62246;50.938;4.058;2022-12-07T01:16:55;102033.28;;;3.71;100.00
53874;BME280;62246;50.938;4.058;2022-12-07T01:19:21;102024.59;;;3.69;100.00
53874;BME280;62246;50.938;4.058;2022-12-07T01:21:46;102033.16;;;3.76;100.00
53874;BME280;62246;50.938;4.058;2022-12-07T01:24:12;102037.47;;;3.78;100.00
53874;BME280;62246;50.938;4.058;2022-12-07T01:26:38;102043.34;;;3.87;100.00
53874;BME280;62246;50.938;4.058;2022-12-07T01:29:03;102046.72;;;3.92;100.00
53874;BME280;62246;50.938;4.058;2022-12-07T01:31:29;102031.78;;;3.94;100.00
53874;BME280;62246;50.938;4.058;2022-12-07T01:33:57;102044.69;;;4.02;100.00
53874;BME280;62246;50.938;4.058;2022-12-07T01:36:25;102030.72;;;4.01;100.00
53874;BME280;62246;50.938;4.058;2022-12-07T01:38:54;102031.72;;;3.97;100.00
53874;BME280;62246;50.938;4.058;2022-12-07T01:41:22;102038.69;;;3.96;100.00
53874;BME280;62246;50.938;4.058;2022-12-07T01:44:14;102031.84;;;3.92;100.00
53874;BME280;62246;50.938;4.058;2022-12-07T01:46:42;102044.97;;;3.91;100.00
53874;BME280;62246;50.938;4.058;2022-12-07T01:49:40;102045.09;;;3.86;100.00
53874;BME280;62246;50.938;4.058;2022-12-07T01:54:39;102042.41;;;3.89;100.00
53874;BME280;62246;50.938;4.058;2022-12-07T01:57:06;102045.03;;;3.89;100.00
53874;BME280;62246;50.938;4.058;2022-12-07T01:59:33;102039.78;;;3.89;100.00
53874;BME280;62246;50.938;4.058;2022-12-07T02:02:01;102039.78;;;3.89;100.00
53874;BME280;62246;50.938;4.058;2022-12-07T02:04:27;102026.84;;;3.83;100.00
53874;BME280;62246;50.938;4.058;2022-12-07T02:06:54;102042.41;;;3.89;100.00
53874;BME280;62246;50.938;4.058;2022-12-07T02:09:20;102038.16;;;3.85;100.00
53874;BME280;62246;50.938;4.058;2022-12-07T02:11:46;102044.44;;;3.78;100.00
53874;BME280;62246;50.938;4.058;2022-12-07T02:14:12;102048.84;;;3.77;100.00
53874;BME280;62246;50.938;4.058;2022-12-07T02:30:16;102039.91;;;3.84;100.00
53874;BME280;62246;50.938;4.058;2022-12-07T02:35:39;102030.72;;;3.70;100.00
53874;BME280;62246;50.938;4.058;2022-12-07T02:38:14;102029.81;;;3.71;100.00
53874;BME280;62246;50.938;4.058;2022-12-07T02:40:54;102037.78;;;3.66;100.00
53874;BME280;62246;50.938;4.058;2022-12-07T02:43:38;102029.22;;;3.59;100.00
53874;BME280;62246;50.938;4.058;2022-12-07T02:46:09;102030.31;;;3.52;100.00
53874;BME280;62246;50.938;4.058;2022-12-07T02:48:37;102024.44;;;3.42;100.00
53874;BME280;62246;50.938;4.058;2022-12-07T02:51:04;102022.19;;;3.28;100.00
53874;BME280;62246;50.938;4.058;2022-12-07T02:53:34;102034.47;;;3.25;100.00
53874;BME280;62246;50.938;4.058;2022-12-07T03:04:33;102026.84;;;2.79;100.00
53874;BME280;62246;50.938;4.058;2022-12-07T03:07:13;102024.50;;;2.69;100.00
53874;BME280;62246;50.938;4.058;2022-12-07T03:10:17;102030.66;;;2.66;100.00
53874;BME280;62246;50.938;4.058;2022-12-07T03:13:09;102033.47;;;2.55;100.00
53874;BME280;62246;50.938;4.058;2022-12-07T03:15:43;102013.72;;;2.42;100.00
53874;BME280;62246;50.938;4.058;2022-12-07T03:18:12;102021.63;;;2.40;100.00
53874;BME280;62246;50.938;4.058;2022-12-07T03:20:41;102026.88;;;2.39;100.00
53874;BME280;62246;50.938;4.058;2022-12-07T03:23:09;102021.69;;;2.37;100.00
53874;BME280;62246;50.938;4.058;2022-12-07T03:25:40;102018.13;;;2.41;100.00
53874;BME280;62246;50.938;4.058;2022-12-07T03:28:07;102018.75;;;2.51;100.00
53874;BME280;62246;50.938;4.058;2022-12-07T03:33:26;102012.97;;;2.38;100.00
53874;BME280;62246;50.938;4.058;2022-12-07T03:36:02;102018.97;;;2.42;100.00
53874;BME280;62246;50.938;4.058;2022-12-07T03:38:44;102006.94;;;2.35;100.00
53874;BME280;62246;50.938;4.058;2022-12-07T03:41:26;102016.44;;;2.39;100.00
53874;BME280;62246;50.938;4.058;2022-12-07T03:43:54;102020.88;;;2.33;100.00
53874;BME280;62246;50.938;4.058;2022-12-07T03:46:30;102009.88;;;2.19;100.00
53874;BME280;62246;50.938;4.058;2022-12-07T03:49:13;102009.91;;;2.17;100.00
53874;BME280;62246;50.938;4.058;2022-12-07T03:52:08;102012.59;;;2.13;100.00
53874;BME280;62246;50.938;4.058;2022-12-07T03:57:05;102017.28;;;1.97;100.00
53874;BME280;62246;50.938;4.058;2022-12-07T03:59:32;102012.19;;;1.91;100.00
53874;BME280;62246;50.938;4.058;2022-12-07T04:02:03;102016.72;;;1.81;100.00
53874;BME280;62246;50.938;4.058;2022-12-07T04:04:29;102012.59;;;1.69;100.00
53874;BME280;62246;50.938;4.058;2022-12-07T04:06:54;102004.78;;;1.67;100.00
53874;BME280;62246;50.938;4.058;2022-12-07T04:09:20;102016.16;;;1.65;100.00
53874;BME280;62246;50.938;4.058;2022-12-07T04:11:46;102011.09;;;1.56;100.00
53874;BME280;62246;50.938;4.058;2022-12-07T04:14:11;102011.84;;;1.62;100.00
53874;BME280;62246;50.938;4.058;2022-12-07T04:19:15;102023.88;;;1.71;100.00
53874;BME280;62246;50.938;4.058;2022-12-07T04:21:40;102023.94;;;1.68;100.00
53874;BME280;62246;50.938;4.058;2022-12-07T04:24:06;102020.56;;;1.61;100.00
53874;BME280;62246;50.938;4.058;2022-12-07T04:26:32;102015.50;;;1.54;100.00
53874;BME280;62246;50.938;4.058;2022-12-07T04:28:57;102015.66;;;1.46;100.00
53874;BME280;62246;50.938;4.058;2022-12-07T04:31:23;102007.84;;;1.43;100.00
53874;BME280;62246;50.938;4.058;2022-12-07T04:33:48;102012.19;;;1.44;100.00
53874;BME280;62246;50.938;4.058;2022-12-07T04:36:14;102004.47;;;1.39;100.00
53874;BME280;62246;50.938;4.058;2022-12-07T04:38:39;102011.44;;;1.37;100.00
53874;BME280;62246;50.938;4.058;2022-12-07T04:41:09;102010.63;;;1.33;100.00
53874;BME280;62246;50.938;4.058;2022-12-07T04:43:35;102007.16;;;1.33;100.00
53874;BME280;62246;50.938;4.058;2022-12-07T04:46:01;102002.88;;;1.29;100.00
53874;BME280;62246;50.938;4.058;2022-12-07T04:48:27;102008.16;;;1.24;100.00
53874;BME280;62246;50.938;4.058;2022-12-07T04:50:53;102003.00;;;1.21;100.00
53874;BME280;62246;50.938;4.058;2022-12-07T04:53:19;101997.06;;;1.13;100.00
53874;BME280;62246;50.938;4.058;2022-12-07T04:55:45;102014.47;;;1.11;100.00
53874;BME280;62246;50.938;4.058;2022-12-07T04:58:11;101996.44;;;0.98;100.00
53874;BME280;62246;50.938;4.058;2022-12-07T05:00:37;102008.63;;;0.98;100.00
53874;BME280;62246;50.938;4.058;2022-12-07T05:03:03;102011.38;;;0.87;100.00
53874;BME280;62246;50.938;4.058;2022-12-07T05:05:29;101998.50;;;0.79;100.00
53874;BME280;62246;50.938;4.058;2022-12-07T05:07:54;102014.13;;;0.79;100.00
53874;BME280;62246;50.938;4.058;2022-12-07T05:10:20;102019.34;;;0.79;100.00
53874;BME280;62246;50.938;4.058;2022-12-07T05:12:46;102013.16;;;0.85;100.00
53874;BME280;62246;50.938;4.058;2022-12-07T05:15:12;102023.59;;;0.85;100.00
53874;BME280;62246;50.938;4.058;2022-12-07T05:17:37;102018.44;;;0.80;100.00
53874;BME280;62246;50.938;4.058;2022-12-07T05:20:04;102017.66;;;0.77;100.00
53874;BME280;62246;50.938;4.058;2022-12-07T05:22:30;102016.03;;;0.68;100.00
53874;BME280;62246;50.938;4.058;2022-12-07T05:24:55;102025.56;;;0.69;100.00
53874;BME280;62246;50.938;4.058;2022-12-07T05:27:21;102021.25;;;0.68;100.00
53874;BME280;62246;50.938;4.058;2022-12-07T05:29:47;102022.06;;;0.70;100.00
53874;BME280;62246;50.938;4.058;2022-12-07T05:32:12;102023.50;;;0.90;100.00
53874;BME280;62246;50.938;4.058;2022-12-07T05:34:38;102008.72;;;0.92;100.00
53874;BME280;62246;50.938;4.058;2022-12-07T05:37:03;102022.50;;;0.98;100.00
53874;BME280;62246;50.938;4.058;2022-12-07T05:39:29;102018.19;;;0.97;100.00
53874;BME280;62246;50.938;4.058;2022-12-07T05:41:54;102015.44;;;1.05;100.00
53874;BME280;62246;50.938;4.058;2022-12-07T05:44:44;102015.38;;;1.11;100.00
53874;BME280;62246;50.938;4.058;2022-12-07T05:47:14;102014.44;;;1.14;100.00
53874;BME280;62246;50.938;4.058;2022-12-07T05:49:40;102012.56;;;1.22;100.00
53874;BME280;62246;50.938;4.058;2022-12-07T05:52:06;102009.00;;;1.28;100.00
53874;BME280;62246;50.938;4.058;2022-12-07T05:54:31;102001.94;;;1.33;100.00
53874;BME280;62246;50.938;4.058;2022-12-07T05:56:57;101987.13;;;1.33;100.00
53874;BME280;62246;50.938;4.058;2022-12-07T05:59:23;101986.13;;;1.42;100.00
53874;BME280;62246;50.938;4.058;2022-12-07T06:01:50;101985.13;;;1.48;100.00
53874;BME280;62246;50.938;4.058;2022-12-07T06:04:17;101986.66;;;1.60;100.00
53874;BME280;62246;50.938;4.058;2022-12-07T06:06:43;101985.78;;;1.61;100.00
53874;BME280;62246;50.938;4.058;2022-12-07T06:09:08;101983.06;;;1.67;100.00
53874;BME280;62246;50.938;4.058;2022-12-07T06:11:34;101989.88;;;1.74;100.00
53874;BME280;62246;50.938;4.058;2022-12-07T06:14:18;101984.56;;;1.79;100.00
53874;BME280;62246;50.938;4.058;2022-12-07T06:16:43;101983.66;;;1.80;100.00
53874;BME280;62246;50.938;4.058;2022-12-07T06:19:09;101984.50;;;1.82;100.00
53874;BME280;62246;50.938;4.058;2022-12-07T06:21:35;101995.91;;;1.78;100.00
53874;BME280;62246;50.938;4.058;2022-12-07T06:24:00;101992.56;;;1.71;100.00
53874;BME280;62246;50.938;4.058;2022-12-07T06:26:27;101994.25;;;1.74;100.00
53874;BME280;62246;50.938;4.058;2022-12-07T06:28:52;101982.06;;;1.73;100.00
53874;BME280;62246;50.938;4.058;2022-12-07T06:31:18;101991.63;;;1.74;100.00
53874;BME280;62246;50.938;4.058;2022-12-07T06:33:43;101989.09;;;1.69;100.00
53874;BME280;62246;50.938;4.058;2022-12-07T06:36:09;101991.03;;;1.59;100.00
53874;BME280;62246;50.938;4.058;2022-12-07T06:38:35;101990.19;;;1.59;100.00
53874;BME280;62246;50.938;4.058;2022-12-07T06:41:00;101994.47;;;1.61;100.00
53874;BME280;62246;50.938;4.058;2022-12-07T06:43:26;102003.94;;;1.67;100.00
53874;BME280;62246;50.938;4.058;2022-12-07T06:45:52;102011.63;;;1.75;100.00
53874;BME280;62246;50.938;4.058;2022-12-07T06:48:18;101999.31;;;1.80;100.00
53874;BME280;62246;50.938;4.058;2022-12-07T06:50:47;102003.59;;;1.86;100.00
53874;BME280;62246;50.938;4.058;2022-12-07T06:53:13;102001.84;;;1.85;100.00
53874;BME280;62246;50.938;4.058;2022-12-07T06:55:40;102003.63;;;1.84;100.00
53874;BME280;62246;50.938;4.058;2022-12-07T06:58:06;102007.16;;;1.81;100.00
53874;BME280;62246;50.938;4.058;2022-12-07T07:00:32;102010.81;;;1.71;100.00
53874;BME280;62246;50.938;4.058;2022-12-07T07:02:59;102018.56;;;1.77;100.00
53874;BME280;62246;50.938;4.058;2022-12-07T07:05:25;102010.00;;;1.67;100.00
53874;BME280;62246;50.938;4.058;2022-12-07T07:07:50;102016.81;;;1.76;100.00
53874;BME280;62246;50.938;4.058;2022-12-07T07:10:18;102018.44;;;1.82;100.00
53874;BME280;62246;50.938;4.058;2022-12-07T07:12:44;102012.38;;;1.80;100.00
53874;BME280;62246;50.938;4.058;2022-12-07T07:15:10;102016.69;;;1.82;100.00
53874;BME280;62246;50.938;4.058;2022-12-07T07:17:36;102017.41;;;1.91;100.00
53874;BME280;62246;50.938;4.058;2022-12-07T07:20:02;102029.53;;;1.95;100.00
53874;BME280;62246;50.938;4.058;2022-12-07T07:22:28;102026.81;;;1.99;100.00
53874;BME280;62246;50.938;4.058;2022-12-07T07:24:53;102029.38;;;2.01;100.00
53874;BME280;62246;50.938;4.058;2022-12-07T07:27:19;102017.16;;;2.03;100.00
53874;BME280;62246;50.938;4.058;2022-12-07T07:29:44;102018.56;;;2.20;100.00
53874;BME280;62246;50.938;4.058;2022-12-07T07:32:10;102003.47;;;2.32;100.00
53874;BME280;62246;50.938;4.058;2022-12-07T07:34:35;102012.97;;;2.37;100.00
53874;BME280;62246;50.938;4.058;2022-12-07T07:37:01;102012.94;;;2.40;100.00
53874;BME280;62246;50.938;4.058;2022-12-07T07:39:26;102013.69;;;2.43;100.00
53874;BME280;62246;50.938;4.058;2022-12-07T07:41:52;102008.22;;;2.56;100.00
53874;BME280;62246;50.938;4.058;2022-12-07T07:44:17;102005.34;;;2.66;100.00
53874;BME280;62246;50.938;4.058;2022-12-07T07:46:43;101993.03;;;2.72;100.00
53874;BME280;62246;50.938;4.058;2022-12-07T07:49:10;101999.81;;;2.79;100.00
53874;BME280;62246;50.938;4.058;2022-12-07T07:51:36;101998.94;;;2.80;100.00
53874;BME280;62246;50.938;4.058;2022-12-07T07:54:02;102001.38;;;2.88;100.00
53874;BME280;62246;50.938;4.058;2022-12-07T07:56:28;101996.06;;;2.91;100.00
53874;BME280;62246;50.938;4.058;2022-12-07T07:58:54;102005.59;;;2.93;100.00
53874;BME280;62246;50.938;4.058;2022-12-07T08:01:19;102003.16;;;2.86;100.00
53874;BME280;62246;50.938;4.058;2022-12-07T08:03:46;102001.56;;;2.80;100.00
53874;BME280;62246;50.938;4.058;2022-12-07T08:06:12;102005.97;;;2.76;100.00
53874;BME280;62246;50.938;4.058;2022-12-07T08:08:38;102011.22;;;2.76;100.00
53874;BME280;62246;50.938;4.058;2022-12-07T08:11:07;102022.38;;;2.83;100.00
53874;BME280;62246;50.938;4.058;2022-12-07T08:13:33;102022.03;;;2.98;100.00
53874;BME280;62246;50.938;4.058;2022-12-07T08:15:58;102023.63;;;3.06;100.00
53874;BME280;62246;50.938;4.058;2022-12-07T08:18:28;102025.88;;;3.20;100.00
53874;BME280;62246;50.938;4.058;2022-12-07T08:20:59;102021.25;;;3.31;100.00
53874;BME280;62246;50.938;4.058;2022-12-07T08:23:24;102019.25;;;3.41;100.00
53874;BME280;62246;50.938;4.058;2022-12-07T08:25:50;102025.13;;;3.49;100.00
53874;BME280;62246;50.938;4.058;2022-12-07T08:28:15;102016.53;;;3.44;100.00
53874;BME280;62246;50.938;4.058;2022-12-07T08:30:41;102021.75;;;3.44;100.00
53874;BME280;62246;50.938;4.058;2022-12-07T08:33:06;102029.75;;;3.39;100.00
53874;BME280;62246;50.938;4.058;2022-12-07T08:35:33;102027.47;;;3.27;100.00
53874;BME280;62246;50.938;4.058;2022-12-07T08:37:59;102031.78;;;3.28;100.00
53874;BME280;62246;50.938;4.058;2022-12-07T08:40:25;102036.06;;;3.30;100.00
53874;BME280;62246;50.938;4.058;2022-12-07T08:42:51;102033.31;;;3.37;100.00
53874;BME280;62246;50.938;4.058;2022-12-07T08:45:18;102028.88;;;3.40;100.00
53874;BME280;62246;50.938;4.058;2022-12-07T08:47:52;102030.31;;;3.50;100.00
53874;BME280;62246;50.938;4.058;2022-12-07T08:50:19;102031.19;;;3.51;100.00
53874;BME280;62246;50.938;4.058;2022-12-07T08:52:50;102028.63;;;3.49;100.00
53874;BME280;62246;50.938;4.058;2022-12-07T08:55:17;102023.16;;;3.59;100.00
53874;BME280;62246;50.938;4.058;2022-12-07T08:57:42;102032.44;;;3.69;100.00
53874;BME280;62246;50.938;4.058;2022-12-07T09:00:08;102027.09;;;3.74;100.00
53874;BME280;62246;50.938;4.058;2022-12-07T09:02:34;102025.31;;;3.76;100.00
53874;BME280;62246;50.938;4.058;2022-12-07T09:05:00;102026.13;;;3.78;100.00
53874;BME280;62246;50.938;4.058;2022-12-07T09:07:25;102022.34;;;3.88;100.00
53874;BME280;62246;50.938;4.058;2022-12-07T09:09:51;102015.03;;;3.99;100.00
53874;BME280;62246;50.938;4.058;2022-12-07T09:12:17;102024.41;;;4.08;100.00
53874;BME280;62246;50.938;4.058;2022-12-07T09:14:42;102016.41;;;4.13;100.00
53874;BME280;62246;50.938;4.058;2022-12-07T09:17:09;102018.72;;;4.24;100.00
53874;BME280;62246;50.938;4.058;2022-12-07T09:19:35;102014.94;;;4.34;100.00
53874;BME280;62246;50.938;4.058;2022-12-07T09:22:01;102018.13;;;4.44;100.00
53874;BME280;62246;50.938;4.058;2022-12-07T09:24:27;102016.41;;;4.43;100.00
53874;BME280;62246;50.938;4.058;2022-12-07T09:26:52;102020.84;;;4.41;100.00
53874;BME280;62246;50.938;4.058;2022-12-07T09:29:18;102023.91;;;4.55;100.00
53874;BME280;62246;50.938;4.058;2022-12-07T09:31:43;102021.03;;;4.63;100.00
53874;BME280;62246;50.938;4.058;2022-12-07T09:34:09;102024.38;;;4.68;100.00
53874;BME280;62246;50.938;4.058;2022-12-07T09:36:34;102018.16;;;4.71;100.00
53874;BME280;62246;50.938;4.058;2022-12-07T09:39:00;102023.88;;;4.83;100.00
53874;BME280;62246;50.938;4.058;2022-12-07T09:41:27;102013.09;;;4.93;100.00
53874;BME280;62246;50.938;4.058;2022-12-07T09:44:00;102013.16;;;4.91;100.00
53874;BME280;62246;50.938;4.058;2022-12-07T09:46:29;102009.66;;;4.91;100.00
53874;BME280;62246;50.938;4.058;2022-12-07T09:48:59;102020.06;;;4.94;100.00
53874;BME280;62246;50.938;4.058;2022-12-07T09:51:24;102017.19;;;5.02;100.00
53874;BME280;62246;50.938;4.058;2022-12-07T09:53:51;102015.47;;;5.00;100.00
53874;BME280;62246;50.938;4.058;2022-12-07T09:56:18;102023.94;;;5.09;100.00
53874;BME280;62246;50.938;4.058;2022-12-07T09:58:44;102015.88;;;5.15;100.00
53874;BME280;62246;50.938;4.058;2022-12-07T10:01:19;102021.41;;;5.32;100.00
53874;BME280;62246;50.938;4.058;2022-12-07T10:03:51;102025.13;;;5.52;100.00
53874;BME280;62246;50.938;4.058;2022-12-07T10:06:17;102021.16;;;5.65;99.84
53874;BME280;62246;50.938;4.058;2022-12-07T10:08:42;102016.53;;;5.72;99.70
53874;BME280;62246;50.938;4.058;2022-12-07T10:11:09;102013.78;;;5.77;98.96
53874;BME280;62246;50.938;4.058;2022-12-07T10:13:39;102025.00;;;5.80;98.64
53874;BME280;62246;50.938;4.058;2022-12-07T10:16:06;102020.41;;;5.62;97.31
53874;BME280;62246;50.938;4.058;2022-12-07T10:18:51;102010.16;;;5.54;99.56
53874;BME280;62246;50.938;4.058;2022-12-07T10:21:19;102008.03;;;5.65;99.41
53874;BME280;62246;50.938;4.058;2022-12-07T10:26:37;102002.91;;;5.62;98.14
53874;BME280;62246;50.938;4.058;2022-12-07T10:29:22;101998.28;;;5.44;96.94
53874;BME280;62246;50.938;4.058;2022-12-07T10:31:59;101995.03;;;5.37;97.49
53874;BME280;62246;50.938;4.058;2022-12-07T10:34:27;102001.88;;;5.41;98.89
53874;BME280;62246;50.938;4.058;2022-12-07T10:37:16;101998.06;;;5.50;99.29
53874;BME280;62246;50.938;4.058;2022-12-07T10:44:49;101978.47;;;5.84;97.29
53874;BME280;62246;50.938;4.058;2022-12-07T10:50:17;101973.22;;;6.08;97.09
53874;BME280;62246;50.938;4.058;2022-12-07T10:58:27;101971.72;;;6.24;95.47
53874;BME280;62246;50.938;4.058;2022-12-07T11:03:55;101948.50;;;6.58;94.55
53874;BME280;62246;50.938;4.058;2022-12-07T11:09:06;101944.09;;;7.82;84.63
53874;BME280;62246;50.938;4.058;2022-12-07T11:14:28;101939.41;;;7.49;84.62
53874;BME280;62246;50.938;4.058;2022-12-07T11:19:55;101923.56;;;8.81;79.14
53874;BME280;62246;50.938;4.058;2022-12-07T11:22:41;101929.53;;;8.49;80.67
53874;BME280;62246;50.938;4.058;2022-12-07T11:28:38;101924.16;;;10.68;71.23
53874;BME280;62246;50.938;4.058;2022-12-07T11:31:24;101932.47;;;8.24;79.02
53874;BME280;62246;50.938;4.058;2022-12-07T11:34:01;101932.78;;;7.59;84.04
53874;BME280;62246;50.938;4.058;2022-12-07T11:36:41;101936.31;;;7.39;85.93
53874;BME280;62246;50.938;4.058;2022-12-07T11:39:26;101932.25;;;7.11;86.69
53874;BME280;62246;50.938;4.058;2022-12-07T11:42:05;101926.63;;;6.98;87.53
53874;BME280;62246;50.938;4.058;2022-12-07T11:44:46;101927.69;;;6.94;88.43
53874;BME280;62246;50.938;4.058;2022-12-07T11:47:28;101922.09;;;6.81;87.71
53874;BME280;62246;50.938;4.058;2022-12-07T11:50:03;101918.06;;;6.73;89.43
53874;BME280;62246;50.938;4.058;2022-12-07T11:55:29;101894.25;;;6.55;89.46
53874;BME280;62246;50.938;4.058;2022-12-07T12:00:52;101902.03;;;6.79;89.20
53874;BME280;62246;50.938;4.058;2022-12-07T12:03:30;101891.25;;;7.06;88.44
53874;BME280;62246;50.938;4.058;2022-12-07T12:05:59;101902.53;;;7.08;87.64
53874;BME280;62246;50.938;4.058;2022-12-07T12:08:28;101893.81;;;7.07;86.88
53874;BME280;62246;50.938;4.058;2022-12-07T12:11:02;101897.16;;;7.11;87.09
53874;BME280;62246;50.938;4.058;2022-12-07T12:21:47;101879.88;;;7.45;87.89
53874;BME280;62246;50.938;4.058;2022-12-07T12:24:19;101864.13;;;7.43;87.73
53874;BME280;62246;50.938;4.058;2022-12-07T12:26:53;101878.81;;;7.68;87.04
53874;BME280;62246;50.938;4.058;2022-12-07T12:29:32;101860.97;;;8.11;85.76
53874;BME280;62246;50.938;4.058;2022-12-07T12:32:21;101858.91;;;8.36;83.34
53874;BME280;62246;50.938;4.058;2022-12-07T12:42:57;101857.59;;;7.90;82.90
53874;BME280;62246;50.938;4.058;2022-12-07T12:45:30;101856.94;;;7.85;82.51
53874;BME280;62246;50.938;4.058;2022-12-07T13:00:44;101835.03;;;12.90;64.25
53874;BME280;62246;50.938;4.058;2022-12-07T13:03:27;101839.06;;;11.17;67.12
53874;BME280;62246;50.938;4.058;2022-12-07T13:06:20;101836.78;;;13.54;59.70
53874;BME280;62246;50.938;4.058;2022-12-07T13:08:59;101830.34;;;13.82;60.96
53874;BME280;62246;50.938;4.058;2022-12-07T13:11:29;101827.44;;;11.91;65.27
53874;BME280;62246;50.938;4.058;2022-12-07T13:16:59;101831.78;;;9.04;73.82
53874;BME280;62246;50.938;4.058;2022-12-07T13:19:54;101835.44;;;8.83;75.58
53874;BME280;62246;50.938;4.058;2022-12-07T13:25:36;101829.34;;;8.29;78.32
53874;BME280;62246;50.938;4.058;2022-12-07T13:28:15;101802.78;;;8.14;79.50
53874;BME280;62246;50.938;4.058;2022-12-07T13:33:34;101816.59;;;8.56;79.08
53874;BME280;62246;50.938;4.058;2022-12-07T13:36:00;101818.25;;;8.22;80.94
53874;BME280;62246;50.938;4.058;2022-12-07T13:38:29;101817.31;;;8.06;82.32
53874;BME280;62246;50.938;4.058;2022-12-07T13:41:12;101807.81;;;8.01;81.99
53874;BME280;62246;50.938;4.058;2022-12-07T13:43:43;101799.78;;;7.86;83.59
53874;BME280;62246;50.938;4.058;2022-12-07T13:46:09;101814.91;;;7.63;84.44
53874;BME280;62246;50.938;4.058;2022-12-07T13:48:45;101805.81;;;7.51;83.61
53874;BME280;62246;50.938;4.058;2022-12-07T13:51:19;101802.09;;;7.36;84.55
53874;BME280;62246;50.938;4.058;2022-12-07T13:53:54;101816.47;;;7.29;84.27
53874;BME280;62246;50.938;4.058;2022-12-07T13:56:28;101812.75;;;7.14;85.56
53874;BME280;62246;50.938;4.058;2022-12-07T13:58:57;101804.31;;;6.87;82.77
53874;BME280;62246;50.938;4.058;2022-12-07T14:01:24;101792.75;;;6.70;83.08
53874;BME280;62246;50.938;4.058;2022-12-07T14:03:50;101803.22;;;6.51;86.03
53874;BME280;62246;50.938;4.058;2022-12-07T14:06:26;101788.50;;;6.25;85.62
53874;BME280;62246;50.938;4.058;2022-12-07T14:09:29;101797.75;;;6.13;87.00
53874;BME280;62246;50.938;4.058;2022-12-07T14:11:55;101796.97;;;6.11;88.37
53874;BME280;62246;50.938;4.058;2022-12-07T14:14:30;101792.22;;;5.98;90.05
53874;BME280;62246;50.938;4.058;2022-12-07T14:17:00;101792.25;;;5.75;89.41
53874;BME280;62246;50.938;4.058;2022-12-07T14:19:59;101788.63;;;5.77;88.86
53874;BME280;62246;50.938;4.058;2022-12-07T14:22:33;101780.75;;;5.77;89.25
53874;BME280;62246;50.938;4.058;2022-12-07T14:25:21;101779.09;;;5.75;90.58
53874;BME280;62246;50.938;4.058;2022-12-07T14:30:20;101778.34;;;5.71;92.57
53874;BME280;62246;50.938;4.058;2022-12-07T14:32:48;101778.66;;;5.63;93.14
53874;BME280;62246;50.938;4.058;2022-12-07T14:35:17;101771.81;;;5.59;93.07
53874;BME280;62246;50.938;4.058;2022-12-07T14:37:46;101773.59;;;5.59;94.28
53874;BME280;62246;50.938;4.058;2022-12-07T14:40:19;101772.56;;;5.63;93.56
53874;BME280;62246;50.938;4.058;2022-12-07T14:42:47;101776.22;;;5.59;94.83
53874;BME280;62246;50.938;4.058;2022-12-07T14:45:16;101761.91;;;5.44;95.04
53874;BME280;62246;50.938;4.058;2022-12-07T14:47:42;101765.19;;;5.49;95.45
53874;BME280;62246;50.938;4.058;2022-12-07T14:50:10;101772.22;;;5.48;96.43
53874;BME280;62246;50.938;4.058;2022-12-07T14:52:36;101759.41;;;5.41;95.84
53874;BME280;62246;50.938;4.058;2022-12-07T14:55:02;101767.03;;;5.47;95.66
53874;BME280;62246;50.938;4.058;2022-12-07T14:57:27;101767.28;;;5.41;97.08